createdAt,value
2023-04-06T00:00:00.469Z,101590
2023-04-06T00:01:00.452Z,101590
2023-04-06T00:02:00.514Z,101590
2023-04-06T00:03:00.472Z,101590
2023-04-06T00:04:00.469Z,101580
2023-04-06T00:05:00.421Z,101580
2023-04-06T00:06:00.429Z,101580
2023-04-06T00:07:00.464Z,101580
2023-04-06T00:08:00.449Z,101580
2023-04-06T00:09:00.500Z,101580
2023-04-06T00:10:00.446Z,101580
2023-04-06T00:11:00.432Z,101580
2023-04-06T00:12:00.459Z,101580
2023-04-06T00:13:00.479Z,101580
2023-04-06T00:14:00.430Z,101580
2023-04-06T00:15:00.526Z,101580
2023-04-06T00:16:00.455Z,101570
2023-04-06T00:17:00.500Z,101570
2023-04-06T00:18:00.527Z,101570
2023-04-06T00:19:00.462Z,101570
2023-04-06T00:20:00.444Z,101570
2023-04-06T00:21:00.442Z,101570
2023-04-06T00:22:00.545Z,101570
2023-04-06T00:23:00.482Z,101570
2023-04-06T00:24:00.436Z,101570
2023-04-06T00:25:00.449Z,101570
2023-04-06T00:26:00.446Z,101570
2023-04-06T00:27:01.169Z,101570
2023-04-06T00:28:00.439Z,101570
2023-04-06T00:29:00.433Z,101570
2023-04-06T00:30:00.454Z,101570
2023-04-06T00:31:00.463Z,101570
2023-04-06T00:32:00.531Z,101570
2023-04-06T00:33:00.492Z,101570
2023-04-06T00:34:00.434Z,101570
2023-04-06T00:35:02.036Z,101570
2023-04-06T00:36:00.538Z,101560
2023-04-06T00:37:00.478Z,101560
2023-04-06T00:38:00.693Z,101560
2023-04-06T00:39:00.463Z,101560
2023-04-06T00:40:00.515Z,101560
2023-04-06T00:41:00.587Z,101560
2023-04-06T00:42:07.374Z,101550
2023-04-06T00:43:00.504Z,101550
2023-04-06T00:44:00.465Z,101550
2023-04-06T00:45:00.936Z,101550
2023-04-06T00:46:00.523Z,101550
2023-04-06T00:47:00.467Z,101550
2023-04-06T00:48:00.698Z,101550
2023-04-06T00:49:00.496Z,101550
2023-04-06T00:50:00.512Z,101550
2023-04-06T00:51:00.849Z,101550
2023-04-06T00:52:00.752Z,101550
2023-04-06T00:53:00.652Z,101550
2023-04-06T00:54:00.454Z,101550
2023-04-06T00:55:00.449Z,101550
2023-04-06T00:56:00.490Z,101550
2023-04-06T00:57:00.475Z,101550
2023-04-06T00:58:00.454Z,101550
2023-04-06T00:59:00.549Z,101550
2023-04-06T01:00:00.562Z,101540
2023-04-06T01:01:00.526Z,101540
2023-04-06T01:02:00.685Z,101540
2023-04-06T01:03:00.536Z,101540
2023-04-06T01:04:01.024Z,101540
2023-04-06T01:05:00.545Z,101540
2023-04-06T01:06:00.471Z,101540
2023-04-06T01:07:00.872Z,101540
2023-04-06T01:08:00.524Z,101540
2023-04-06T01:09:00.497Z,101540
2023-04-06T01:10:00.495Z,101530
2023-04-06T01:11:00.467Z,101530
2023-04-06T01:12:00.453Z,101530
2023-04-06T01:13:00.469Z,101530
2023-04-06T01:14:00.495Z,101520
2023-04-06T01:15:00.541Z,101520
2023-04-06T01:16:00.747Z,101520
2023-04-06T01:17:00.510Z,101520
2023-04-06T01:18:00.520Z,101520
2023-04-06T01:19:00.508Z,101520
2023-04-06T01:20:00.467Z,101520
2023-04-06T01:21:00.483Z,101520
2023-04-06T01:22:00.463Z,101520
2023-04-06T01:23:00.466Z,101520
2023-04-06T01:24:00.474Z,101520
2023-04-06T01:25:00.483Z,101520
2023-04-06T01:26:00.451Z,101510
2023-04-06T01:27:00.485Z,101510
2023-04-06T01:28:00.484Z,101510
2023-04-06T01:29:00.703Z,101510
2023-04-06T01:30:00.486Z,101510
2023-04-06T01:31:00.473Z,101510
2023-04-06T01:32:00.460Z,101510
2023-04-06T01:33:00.488Z,101510
2023-04-06T01:34:00.433Z,101510
2023-04-06T01:35:00.452Z,101510
2023-04-06T01:36:00.660Z,101510
2023-04-06T01:37:00.476Z,101510
2023-04-06T01:38:00.465Z,101500
2023-04-06T01:39:00.626Z,101500
2023-04-06T01:40:00.497Z,101500
2023-04-06T01:41:00.450Z,101500
2023-04-06T01:42:00.470Z,101500
2023-04-06T01:43:00.519Z,101500
2023-04-06T01:44:01.029Z,101500
2023-04-06T01:45:00.480Z,101500
2023-04-06T01:46:00.583Z,101500
2023-04-06T01:47:00.496Z,101500
2023-04-06T01:48:00.459Z,101490
2023-04-06T01:49:00.439Z,101490
2023-04-06T01:50:00.435Z,101490
2023-04-06T01:51:00.471Z,101490
2023-04-06T01:52:00.453Z,101490
2023-04-06T01:53:00.450Z,101490
2023-04-06T01:54:00.456Z,101490
2023-04-06T01:55:00.435Z,101490
2023-04-06T01:56:00.464Z,101490
2023-04-06T01:57:00.439Z,101490
2023-04-06T01:58:00.434Z,101490
2023-04-06T01:59:00.445Z,101490
2023-04-06T02:00:00.438Z,101490
2023-04-06T02:01:00.556Z,101490
2023-04-06T02:02:00.506Z,101480
2023-04-06T02:03:00.529Z,101480
2023-04-06T02:04:00.434Z,101480
2023-04-06T02:05:00.460Z,101480
2023-04-06T02:06:00.454Z,101480
2023-04-06T02:07:00.450Z,101480
2023-04-06T02:08:00.433Z,101470
2023-04-06T02:09:00.449Z,101470
2023-04-06T02:10:00.430Z,101470
2023-04-06T02:11:00.447Z,101470
2023-04-06T02:12:00.452Z,101470
2023-04-06T02:13:00.870Z,101470
2023-04-06T02:14:00.449Z,101460
2023-04-06T02:15:00.439Z,101460
2023-04-06T02:16:00.492Z,101460
2023-04-06T02:17:00.457Z,101460
2023-04-06T02:18:00.486Z,101460
2023-04-06T02:19:00.424Z,101460
2023-04-06T02:20:00.435Z,101460
2023-04-06T02:21:00.454Z,101460
2023-04-06T02:22:00.428Z,101460
2023-04-06T02:23:00.443Z,101460
2023-04-06T02:24:00.469Z,101450
2023-04-06T02:25:00.558Z,101450
2023-04-06T02:26:00.435Z,101450
2023-04-06T02:27:00.456Z,101450
2023-04-06T02:28:00.426Z,101460
2023-04-06T02:29:00.493Z,101460
2023-04-06T02:30:00.434Z,101450
2023-04-06T02:31:00.449Z,101450
2023-04-06T02:32:00.572Z,101450
2023-04-06T02:33:00.872Z,101450
2023-04-06T02:34:00.441Z,101450
2023-04-06T02:35:00.435Z,101450
2023-04-06T02:36:00.454Z,101450
2023-04-06T02:37:00.442Z,101450
2023-04-06T02:38:00.451Z,101450
2023-04-06T02:39:00.443Z,101450
2023-04-06T02:40:00.469Z,101440
2023-04-06T02:41:00.435Z,101440
2023-04-06T02:42:00.433Z,101440
2023-04-06T02:43:00.431Z,101440
2023-04-06T02:44:00.447Z,101440
2023-04-06T02:45:00.454Z,101440
2023-04-06T02:46:00.479Z,101430
2023-04-06T02:47:00.493Z,101430
2023-04-06T02:48:00.464Z,101430
2023-04-06T02:49:00.442Z,101430
2023-04-06T02:50:00.526Z,101430
2023-04-06T02:51:00.460Z,101430
2023-04-06T02:52:00.463Z,101430
2023-04-06T02:53:00.446Z,101430
2023-04-06T02:54:00.442Z,101430
2023-04-06T02:55:00.436Z,101430
2023-04-06T02:56:00.517Z,101420
2023-04-06T02:57:00.446Z,101420
2023-04-06T02:58:00.438Z,101420
2023-04-06T02:59:00.485Z,101420
2023-04-06T03:00:00.446Z,101420
2023-04-06T03:01:00.471Z,101420
2023-04-06T03:02:00.466Z,101420
2023-04-06T03:03:00.517Z,101420
2023-04-06T03:04:00.440Z,101410
2023-04-06T03:05:00.455Z,101410
2023-04-06T03:06:00.446Z,101420
2023-04-06T03:07:01.580Z,101420
2023-04-06T03:08:00.458Z,101420
2023-04-06T03:09:00.442Z,101420
2023-04-06T03:10:00.437Z,101420
2023-04-06T03:11:00.445Z,101420
2023-04-06T03:12:00.424Z,101410
2023-04-06T03:13:00.435Z,101410
2023-04-06T03:14:00.462Z,101420
2023-04-06T03:15:00.487Z,101420
2023-04-06T03:16:00.581Z,101410
2023-04-06T03:17:00.434Z,101410
2023-04-06T03:18:00.768Z,101410
2023-04-06T03:19:00.430Z,101410
2023-04-06T03:20:00.470Z,101410
2023-04-06T03:21:00.453Z,101410
2023-04-06T03:22:00.449Z,101410
2023-04-06T03:23:00.440Z,101410
2023-04-06T03:24:00.420Z,101410
2023-04-06T03:25:03.020Z,101410
2023-04-06T03:26:01.185Z,101410
2023-04-06T03:27:00.435Z,101410
2023-04-06T03:28:00.438Z,101410
2023-04-06T03:29:00.445Z,101410
2023-04-06T03:30:00.449Z,101410
2023-04-06T03:31:00.475Z,101410
2023-04-06T03:32:00.428Z,101400
2023-04-06T03:33:00.499Z,101400
2023-04-06T03:34:00.455Z,101410
2023-04-06T03:35:00.416Z,101410
2023-04-06T03:36:00.473Z,101400
2023-04-06T03:37:09.955Z,101400
2023-04-06T03:38:00.438Z,101400
2023-04-06T03:39:00.522Z,101400
2023-04-06T03:40:00.444Z,101400
2023-04-06T03:41:00.420Z,101400
2023-04-06T03:42:00.437Z,101400
2023-04-06T03:43:00.449Z,101400
2023-04-06T03:44:00.475Z,101400
2023-04-06T03:45:00.454Z,101400
2023-04-06T03:46:00.432Z,101400
2023-04-06T03:47:00.475Z,101400
2023-04-06T03:48:00.498Z,101400
2023-04-06T03:49:00.460Z,101400
2023-04-06T03:50:00.508Z,101390
2023-04-06T03:51:00.450Z,101390
2023-04-06T03:52:00.886Z,101390
2023-04-06T03:53:00.440Z,101390
2023-04-06T03:54:00.451Z,101390
2023-04-06T03:55:00.441Z,101390
2023-04-06T03:56:02.142Z,101390
2023-04-06T03:57:00.447Z,101390
2023-04-06T03:58:00.435Z,101390
2023-04-06T03:59:00.480Z,101390
2023-04-06T04:00:00.444Z,101390
2023-04-06T04:01:00.426Z,101390
2023-04-06T04:02:00.510Z,101380
2023-04-06T04:03:00.619Z,101380
2023-04-06T04:04:00.695Z,101390
2023-04-06T04:05:00.478Z,101390
2023-04-06T04:06:00.443Z,101390
2023-04-06T04:07:00.449Z,101390
2023-04-06T04:08:00.447Z,101390
2023-04-06T04:09:00.450Z,101390
2023-04-06T04:10:00.425Z,101390
2023-04-06T04:11:00.422Z,101390
2023-04-06T04:12:00.436Z,101390
2023-04-06T04:13:00.428Z,101390
2023-04-06T04:14:00.424Z,101390
2023-04-06T04:15:00.452Z,101390
2023-04-06T04:16:00.555Z,101390
2023-04-06T04:17:00.478Z,101390
2023-04-06T04:18:00.551Z,101400
2023-04-06T04:19:00.423Z,101400
2023-04-06T04:20:00.458Z,101390
2023-04-06T04:21:00.439Z,101390
2023-04-06T04:22:00.429Z,101390
2023-04-06T04:23:00.446Z,101390
2023-04-06T04:24:00.433Z,101390
2023-04-06T04:25:00.439Z,101390
2023-04-06T04:26:00.443Z,101390
2023-04-06T04:27:00.430Z,101390
2023-04-06T04:28:00.466Z,101390
2023-04-06T04:29:00.434Z,101390
2023-04-06T04:30:00.488Z,101400
2023-04-06T04:31:00.448Z,101400
2023-04-06T04:32:00.530Z,101390
2023-04-06T04:33:00.465Z,101390
2023-04-06T04:34:00.435Z,101400
2023-04-06T04:35:00.434Z,101400
2023-04-06T04:36:00.508Z,101390
2023-04-06T04:37:00.432Z,101390
2023-04-06T04:38:00.440Z,101390
2023-04-06T04:39:00.446Z,101390
2023-04-06T04:40:00.555Z,101390
2023-04-06T04:41:00.432Z,101390
2023-04-06T04:42:00.452Z,101390
2023-04-06T04:43:00.424Z,101390
2023-04-06T04:44:00.442Z,101390
2023-04-06T04:45:00.525Z,101390
2023-04-06T04:46:00.549Z,101390
2023-04-06T04:47:00.428Z,101390
2023-04-06T04:48:00.520Z,101390
2023-04-06T04:49:00.456Z,101390
2023-04-06T04:50:00.481Z,101380
2023-04-06T04:51:00.713Z,101380
2023-04-06T04:52:00.452Z,101390
2023-04-06T04:53:00.451Z,101390
2023-04-06T04:54:00.448Z,101390
2023-04-06T04:55:00.470Z,101390
2023-04-06T04:56:00.460Z,101380
2023-04-06T04:57:00.445Z,101380
2023-04-06T04:58:00.427Z,101390
2023-04-06T04:59:00.503Z,101390
2023-04-06T05:00:00.457Z,101390
2023-04-06T05:01:00.475Z,101390
2023-04-06T05:02:00.514Z,101380
2023-04-06T05:03:00.556Z,101380
2023-04-06T05:04:00.444Z,101380
2023-04-06T05:05:00.452Z,101380
2023-04-06T05:06:00.456Z,101380
2023-04-06T05:07:08.370Z,101380
2023-04-06T05:08:01.415Z,101380
2023-04-06T05:09:00.440Z,101380
2023-04-06T05:10:00.459Z,101390
2023-04-06T05:11:00.457Z,101390
2023-04-06T05:12:00.482Z,101390
2023-04-06T05:13:00.514Z,101390
2023-04-06T05:14:01.821Z,101390
2023-04-06T05:15:00.498Z,101390
2023-04-06T05:16:00.519Z,101390
2023-04-06T05:17:00.443Z,101390
2023-04-06T05:18:00.973Z,101390
2023-04-06T05:19:00.518Z,101390
2023-04-06T05:20:00.470Z,101390
2023-04-06T05:21:00.499Z,101390
2023-04-06T05:22:00.443Z,101390
2023-04-06T05:23:00.468Z,101390
2023-04-06T05:24:00.464Z,101390
2023-04-06T05:25:01.384Z,101390
2023-04-06T05:26:00.487Z,101390
2023-04-06T05:27:00.504Z,101390
2023-04-06T05:28:00.496Z,101390
2023-04-06T05:29:00.835Z,101390
2023-04-06T05:30:00.740Z,101380
2023-04-06T05:31:00.484Z,101380
2023-04-06T05:32:01.010Z,101380
2023-04-06T05:33:00.658Z,101380
2023-04-06T05:34:00.474Z,101380
2023-04-06T05:35:00.493Z,101380
2023-04-06T05:36:00.550Z,101380
2023-04-06T05:37:00.437Z,101380
2023-04-06T05:38:00.455Z,101380
2023-04-06T05:39:00.464Z,101380
2023-04-06T05:40:00.447Z,101380
2023-04-06T05:41:00.508Z,101380
2023-04-06T05:42:02.764Z,101380
2023-04-06T05:43:00.436Z,101380
2023-04-06T05:44:00.445Z,101370
2023-04-06T05:45:00.441Z,101370
2023-04-06T05:46:00.442Z,101380
2023-04-06T05:47:00.461Z,101380
2023-04-06T05:48:01.048Z,101380
2023-04-06T05:49:00.427Z,101380
2023-04-06T05:50:00.463Z,101370
2023-04-06T05:51:00.424Z,101370
2023-04-06T05:52:00.602Z,101370
2023-04-06T05:53:00.453Z,101370
2023-04-06T05:54:00.445Z,101370
2023-04-06T05:55:00.482Z,101370
2023-04-06T05:56:00.987Z,101370
2023-04-06T05:57:01.614Z,101370
2023-04-06T05:58:00.446Z,101370
2023-04-06T05:59:00.491Z,101370
2023-04-06T06:00:00.610Z,101370
2023-04-06T06:01:01.092Z,101370
2023-04-06T06:02:00.501Z,101380
2023-04-06T06:03:00.482Z,101380
2023-04-06T06:04:00.881Z,101370
2023-04-06T06:05:00.492Z,101370
2023-04-06T06:06:01.076Z,101370
2023-04-06T06:07:00.600Z,101370
2023-04-06T06:08:00.441Z,101370
2023-04-06T06:09:00.435Z,101370
2023-04-06T06:10:00.480Z,101370
2023-04-06T06:11:01.604Z,101370
2023-04-06T06:12:00.442Z,101370
2023-04-06T06:13:00.452Z,101370
2023-04-06T06:14:00.428Z,101370
2023-04-06T06:15:00.475Z,101370
2023-04-06T06:16:00.474Z,101370
2023-04-06T06:17:00.524Z,101370
2023-04-06T06:18:00.514Z,101370
2023-04-06T06:19:00.466Z,101370
2023-04-06T06:20:00.458Z,101370
2023-04-06T06:21:00.432Z,101370
2023-04-06T06:22:00.454Z,101370
2023-04-06T06:23:00.435Z,101370
2023-04-06T06:24:00.710Z,101370
2023-04-06T06:25:00.432Z,101370
2023-04-06T06:26:00.454Z,101370
2023-04-06T06:27:00.456Z,101370
2023-04-06T06:28:00.429Z,101370
2023-04-06T06:29:00.450Z,101370
2023-04-06T06:30:00.488Z,101370
2023-04-06T06:31:00.436Z,101370
2023-04-06T06:32:00.546Z,101370
2023-04-06T06:33:00.498Z,101370
2023-04-06T06:34:00.846Z,101370
2023-04-06T06:35:00.475Z,101370
2023-04-06T06:36:00.457Z,101370
2023-04-06T06:37:00.430Z,101370
2023-04-06T06:38:00.456Z,101370
2023-04-06T06:39:00.446Z,101370
2023-04-06T06:40:00.438Z,101370
2023-04-06T06:41:00.436Z,101370
2023-04-06T06:42:00.462Z,101370
2023-04-06T06:43:00.465Z,101370
2023-04-06T06:44:00.446Z,101370
2023-04-06T06:45:00.922Z,101370
2023-04-06T06:46:00.530Z,101380
2023-04-06T06:47:00.473Z,101380
2023-04-06T06:48:00.474Z,101390
2023-04-06T06:49:00.445Z,101390
2023-04-06T06:50:00.460Z,101380
2023-04-06T06:51:00.697Z,101380
2023-04-06T06:52:00.442Z,101370
2023-04-06T06:53:00.457Z,101370
2023-04-06T06:54:00.491Z,101380
2023-04-06T06:55:00.475Z,101380
2023-04-06T06:56:00.530Z,101370
2023-04-06T06:57:00.459Z,101370
2023-04-06T06:58:00.448Z,101380
2023-04-06T06:59:00.533Z,101380
2023-04-06T07:00:00.439Z,101380
2023-04-06T07:01:00.705Z,101380
2023-04-06T07:02:00.498Z,101380
2023-04-06T07:03:00.582Z,101380
2023-04-06T07:04:00.487Z,101370
2023-04-06T07:05:00.437Z,101370
2023-04-06T07:06:00.486Z,101370
2023-04-06T07:07:00.444Z,101370
2023-04-06T07:08:00.544Z,101370
2023-04-06T07:09:00.473Z,101370
2023-04-06T07:10:00.703Z,101370
2023-04-06T07:11:00.463Z,101370
2023-04-06T07:12:00.446Z,101360
2023-04-06T07:13:00.461Z,101360
2023-04-06T07:14:00.445Z,101360
2023-04-06T07:15:00.741Z,101360
2023-04-06T07:16:00.448Z,101360
2023-04-06T07:17:00.485Z,101360
2023-04-06T07:18:00.507Z,101360
2023-04-06T07:19:00.461Z,101360
2023-04-06T07:20:00.460Z,101360
2023-04-06T07:21:00.449Z,101360
2023-04-06T07:22:00.458Z,101360
2023-04-06T07:23:00.449Z,101360
2023-04-06T07:24:00.468Z,101360
2023-04-06T07:25:00.481Z,101360
2023-04-06T07:26:00.458Z,101360
2023-04-06T07:27:00.528Z,101360
2023-04-06T07:28:00.606Z,101350
2023-04-06T07:29:00.438Z,101350
2023-04-06T07:30:00.467Z,101350
2023-04-06T07:31:00.593Z,101350
2023-04-06T07:32:00.482Z,101350
2023-04-06T07:33:00.518Z,101350
2023-04-06T07:34:00.453Z,101350
2023-04-06T07:35:00.443Z,101350
2023-04-06T07:36:00.526Z,101350
2023-04-06T07:37:03.096Z,101350
2023-04-06T07:38:00.451Z,101350
2023-04-06T07:39:00.467Z,101350
2023-04-06T07:40:00.477Z,101350
2023-04-06T07:41:00.441Z,101350
2023-04-06T07:42:00.477Z,101350
2023-04-06T07:43:00.466Z,101350
2023-04-06T07:44:00.454Z,101350
2023-04-06T07:45:00.431Z,101350
2023-04-06T07:46:00.464Z,101350
2023-04-06T07:47:00.436Z,101350
2023-04-06T07:48:00.486Z,101350
2023-04-06T07:49:00.458Z,101350
2023-04-06T07:50:00.441Z,101350
2023-04-06T07:51:01.201Z,101350
2023-04-06T07:52:00.557Z,101350
2023-04-06T07:53:00.462Z,101350
2023-04-06T07:54:00.430Z,101350
2023-04-06T07:55:00.482Z,101350
2023-04-06T07:56:00.468Z,101350
2023-04-06T07:57:00.451Z,101350
2023-04-06T07:58:00.429Z,101350
2023-04-06T07:59:00.518Z,101350
2023-04-06T08:00:00.480Z,101350
2023-04-06T08:01:00.925Z,101350
2023-04-06T08:02:00.513Z,101350
2023-04-06T08:03:00.571Z,101350
2023-04-06T08:04:00.647Z,101350
2023-04-06T08:05:00.541Z,101350
2023-04-06T08:06:00.517Z,101350
2023-04-06T08:07:00.458Z,101350
2023-04-06T08:08:00.458Z,101350
2023-04-06T08:09:00.430Z,101350
2023-04-06T08:10:00.453Z,101350
2023-04-06T08:11:02.166Z,101350
2023-04-06T08:12:00.449Z,101350
2023-04-06T08:13:00.579Z,101350
2023-04-06T08:14:00.434Z,101350
2023-04-06T08:15:00.461Z,101350
2023-04-06T08:16:00.479Z,101350
2023-04-06T08:17:00.456Z,101350
2023-04-06T08:18:00.515Z,101350
2023-04-06T08:19:00.444Z,101350
2023-04-06T08:20:00.594Z,101350
2023-04-06T08:21:00.518Z,101350
2023-04-06T08:22:00.622Z,101350
2023-04-06T08:23:00.628Z,101350
2023-04-06T08:24:00.634Z,101350
2023-04-06T08:25:00.467Z,101350
2023-04-06T08:26:00.474Z,101350
2023-04-06T08:27:00.445Z,101350
2023-04-06T08:28:00.462Z,101350
2023-04-06T08:29:00.424Z,101350
2023-04-06T08:30:00.545Z,101350
2023-04-06T08:31:04.678Z,101350
2023-04-06T08:32:00.459Z,101350
2023-04-06T08:33:00.489Z,101350
2023-04-06T08:34:00.805Z,101350
2023-04-06T08:35:00.460Z,101350
2023-04-06T08:36:06.281Z,101350
2023-04-06T08:37:00.790Z,101350
2023-04-06T08:38:00.538Z,101360
2023-04-06T08:39:00.754Z,101360
2023-04-06T08:40:00.456Z,101360
2023-04-06T08:41:00.425Z,101360
2023-04-06T08:42:01.187Z,101350
2023-04-06T08:43:02.066Z,101350
2023-04-06T08:44:01.191Z,101350
2023-04-06T08:45:00.453Z,101350
2023-04-06T08:46:00.572Z,101350
2023-04-06T08:47:00.641Z,101350
2023-04-06T08:48:02.496Z,101350
2023-04-06T08:49:02.788Z,101350
2023-04-06T08:50:02.658Z,101350
2023-04-06T08:51:01.066Z,101350
2023-04-06T08:52:00.499Z,101350
2023-04-06T08:53:00.802Z,101350
2023-04-06T08:54:00.446Z,101350
2023-04-06T08:55:00.711Z,101350
2023-04-06T08:56:01.168Z,101350
2023-04-06T08:57:01.684Z,101350
2023-04-06T08:58:00.759Z,101350
2023-04-06T08:59:00.503Z,101350
2023-04-06T09:00:00.895Z,101350
2023-04-06T09:01:01.039Z,101350
2023-04-06T09:02:03.145Z,101350
2023-04-06T09:03:01.074Z,101350
2023-04-06T09:04:00.687Z,101350
2023-04-06T09:05:00.735Z,101350
2023-04-06T09:06:00.815Z,101350
2023-04-06T09:07:00.573Z,101350
2023-04-06T09:08:00.466Z,101350
2023-04-06T09:09:00.431Z,101350
2023-04-06T09:10:00.474Z,101360
2023-04-06T09:11:02.569Z,101360
2023-04-06T09:12:00.451Z,101360
2023-04-06T09:13:05.113Z,101360
2023-04-06T09:14:00.447Z,101360
2023-04-06T09:15:01.134Z,101360
2023-04-06T09:16:01.814Z,101360
2023-04-06T09:17:00.505Z,101360
2023-04-06T09:19:04.011Z,101360
2023-04-06T09:20:01.079Z,101360
2023-04-06T09:21:01.271Z,101360
2023-04-06T09:22:03.375Z,101360
2023-04-06T09:23:00.458Z,101360
2023-04-06T09:24:01.716Z,101360
2023-04-06T09:25:00.451Z,101360
2023-04-06T09:26:09.977Z,101360
2023-04-06T09:27:00.452Z,101360
2023-04-06T09:28:02.640Z,101360
2023-04-06T09:29:00.434Z,101360
2023-04-06T09:30:04.766Z,101360
2023-04-06T09:31:00.460Z,101360
2023-04-06T09:32:02.702Z,101360
2023-04-06T09:33:00.906Z,101360
2023-04-06T09:34:00.655Z,101350
2023-04-06T09:35:08.215Z,101350
2023-04-06T09:36:00.503Z,101360
2023-04-06T09:37:00.494Z,101360
2023-04-06T09:38:10.369Z,101350
2023-04-06T09:39:01.666Z,101350
2023-04-06T09:40:02.325Z,101350
2023-04-06T09:41:01.557Z,101350
2023-04-06T09:42:00.489Z,101350
2023-04-06T09:43:00.470Z,101350
2023-04-06T09:44:10.556Z,101350
2023-04-06T09:45:01.343Z,101350
2023-04-06T09:46:00.794Z,101350
2023-04-06T09:47:01.446Z,101350
2023-04-06T09:48:01.148Z,101350
2023-04-06T09:49:01.807Z,101350
2023-04-06T09:50:00.963Z,101350
2023-04-06T09:51:03.117Z,101350
2023-04-06T09:52:02.104Z,101350
2023-04-06T09:53:01.035Z,101350
2023-04-06T09:54:01.360Z,101350
2023-04-06T09:55:02.240Z,101350
2023-04-06T09:56:02.321Z,101350
2023-04-06T09:57:12.596Z,101350
2023-04-06T09:58:00.430Z,101350
2023-04-06T09:59:02.498Z,101350
2023-04-06T10:00:03.692Z,101360
2023-04-06T10:01:09.635Z,101360
2023-04-06T10:02:00.940Z,101350
2023-04-06T10:03:01.550Z,101350
2023-04-06T10:04:09.978Z,101350
2023-04-06T10:05:05.236Z,101350
2023-04-06T10:06:03.691Z,101350
2023-04-06T10:07:02.076Z,101350
2023-04-06T10:08:05.199Z,101350
2023-04-06T10:09:01.560Z,101350
2023-04-06T10:10:02.310Z,101350
2023-04-06T10:11:01.918Z,101350
2023-04-06T10:12:00.795Z,101350
2023-04-06T10:13:00.464Z,101350
2023-04-06T10:14:00.646Z,101350
2023-04-06T10:15:00.491Z,101350
2023-04-06T10:16:01.016Z,101350
2023-04-06T10:17:01.826Z,101350
2023-04-06T10:18:01.004Z,101350
2023-04-06T10:19:04.699Z,101350
2023-04-06T10:20:10.362Z,101360
2023-04-06T10:21:04.136Z,101360
2023-04-06T10:22:02.851Z,101350
2023-04-06T10:23:10.374Z,101350
2023-04-06T10:24:06.761Z,101350
2023-04-06T10:25:00.482Z,101350
2023-04-06T10:26:01.037Z,101350
2023-04-06T10:27:02.097Z,101350
2023-04-06T10:28:04.609Z,101360
2023-04-06T10:29:02.910Z,101360
2023-04-06T10:30:04.482Z,101350
2023-04-06T10:31:01.442Z,101350
2023-04-06T10:32:00.561Z,101360
2023-04-06T10:33:00.836Z,101360
2023-04-06T10:34:01.427Z,101360
2023-04-06T10:35:08.507Z,101360
2023-04-06T10:36:10.428Z,101360
2023-04-06T10:37:10.161Z,101360
2023-04-06T10:38:01.994Z,101350
2023-04-06T10:39:01.814Z,101350
2023-04-06T10:40:00.458Z,101370
2023-04-06T10:41:09.177Z,101370
2023-04-06T10:42:06.138Z,101360
2023-04-06T10:43:10.424Z,101360
2023-04-06T10:44:00.542Z,101370
2023-04-06T10:45:00.475Z,101370
2023-04-06T10:46:00.532Z,101360
2023-04-06T10:47:00.470Z,101360
2023-04-06T10:48:00.567Z,101360
2023-04-06T10:49:10.389Z,101360
2023-04-06T10:50:00.462Z,101360
2023-04-06T10:51:00.435Z,101360
2023-04-06T10:52:00.435Z,101370
2023-04-06T10:53:01.297Z,101370
2023-04-06T10:54:01.151Z,101360
2023-04-06T10:55:01.235Z,101360
2023-04-06T10:56:00.739Z,101370
2023-04-06T10:57:00.450Z,101370
2023-04-06T10:58:00.455Z,101360
2023-04-06T10:59:00.488Z,101360
2023-04-06T11:00:00.463Z,101360
2023-04-06T11:01:00.565Z,101360
2023-04-06T11:02:00.443Z,101360
2023-04-06T11:03:00.754Z,101360
2023-04-06T11:04:00.621Z,101370
2023-04-06T11:05:00.539Z,101370
2023-04-06T11:06:00.466Z,101360
2023-04-06T11:07:00.427Z,101360
2023-04-06T11:08:00.446Z,101360
2023-04-06T11:09:00.471Z,101360
2023-04-06T11:10:14.945Z,101350
2023-04-06T11:11:10.367Z,101350
2023-04-06T11:12:00.438Z,101360
2023-04-06T11:13:00.433Z,101360
2023-04-06T11:14:00.483Z,101350
2023-04-06T11:15:01.609Z,101350
2023-04-06T11:16:00.456Z,101350
2023-04-06T11:17:00.518Z,101350
2023-04-06T11:18:03.324Z,101350
2023-04-06T11:19:02.561Z,101350
2023-04-06T11:20:00.480Z,101360
2023-04-06T11:21:00.449Z,101360
2023-04-06T11:22:06.876Z,101350
2023-04-06T11:23:00.448Z,101350
2023-04-06T11:24:04.628Z,101350
2023-04-06T11:26:00.436Z,101360
2023-04-06T11:27:00.437Z,101360
2023-04-06T11:28:00.481Z,101350
2023-04-06T11:29:00.490Z,101350
2023-04-06T11:30:00.852Z,101350
2023-04-06T11:31:01.882Z,101350
2023-04-06T11:32:02.086Z,101350
2023-04-06T11:33:00.939Z,101350
2023-04-06T11:34:00.490Z,101350
2023-04-06T11:35:00.448Z,101350
2023-04-06T11:36:00.923Z,101350
2023-04-06T11:37:01.438Z,101350
2023-04-06T11:38:02.961Z,101350
2023-04-06T11:39:00.505Z,101350
2023-04-06T11:40:00.570Z,101340
2023-04-06T11:41:00.824Z,101340
2023-04-06T11:42:01.076Z,101340
2023-04-06T11:43:00.454Z,101340
2023-04-06T11:44:00.972Z,101340
2023-04-06T11:45:00.448Z,101340
2023-04-06T11:46:01.677Z,101330
2023-04-06T11:47:00.973Z,101330
2023-04-06T11:48:00.682Z,101340
2023-04-06T11:49:01.941Z,101340
2023-04-06T11:50:10.421Z,101330
2023-04-06T11:51:01.239Z,101330
2023-04-06T11:52:00.736Z,101330
2023-04-06T11:53:01.204Z,101330
2023-04-06T11:54:00.440Z,101340
2023-04-06T11:55:10.079Z,101340
2023-04-06T11:56:00.495Z,101330
2023-04-06T11:57:00.996Z,101330
2023-04-06T11:58:00.448Z,101330
2023-04-06T11:59:00.469Z,101330
2023-04-06T12:00:00.443Z,101330
2023-04-06T12:01:04.172Z,101330
2023-04-06T12:02:01.950Z,101330
2023-04-06T12:03:00.614Z,101330
2023-04-06T12:04:00.580Z,101330
2023-04-06T12:05:00.465Z,101330
2023-04-06T12:06:00.444Z,101340
2023-04-06T12:07:00.524Z,101340
2023-04-06T12:08:02.626Z,101330
2023-04-06T12:09:00.436Z,101330
2023-04-06T12:10:01.330Z,101330
2023-04-06T12:11:00.430Z,101330
2023-04-06T12:12:00.468Z,101320
2023-04-06T12:13:00.444Z,101320
2023-04-06T12:14:00.424Z,101320
2023-04-06T12:15:00.478Z,101320
2023-04-06T12:16:00.533Z,101320
2023-04-06T12:17:00.452Z,101320
2023-04-06T12:18:00.467Z,101310
2023-04-06T12:19:00.563Z,101310
2023-04-06T12:21:00.441Z,101320
2023-04-06T12:22:00.452Z,101320
2023-04-06T12:23:00.445Z,101320
2023-04-06T12:24:00.498Z,101320
2023-04-06T12:25:00.422Z,101320
2023-04-06T12:26:00.429Z,101310
2023-04-06T12:27:09.276Z,101310
2023-04-06T12:28:00.443Z,101310
2023-04-06T12:29:00.547Z,101310
2023-04-06T12:30:00.465Z,101310
2023-04-06T12:31:00.422Z,101310